Scroll down
FLIGHT INFORMATION
American Airlines

AAL79

At Arrival Gate

EGLL
 KDFW
DATE: 2021-03-21
GATE: 534
GATE DEPARTURE: 15:42
TAKEOFF: 15:56
DATE: 2021-03-22
GATE: A6
LANDING: 01:07
GATE ARRIVAL: 01:14
FLIGHT DATA
Crew: 
Speed: 
504 kts
Altitude: 
41,008 ft
Stage Length: 
4,118.2 nm
Block Time: 
9.5 hrs
Flight Time: 
9.2 hrs
Fuel Used: 
138,941 lb
Cleared Route: EGLL D132B D254K WODNB D101H CPT KENET UGNUS OKTAD DOBEM TOPRO MEDOG FOXLA ABAPO PEMOB LANPI BAKUR DOGAL 5520N 5630N 5640N 5550N LOMSI ANCER POLTY KENLU PEPLA DERLO WWSHR DUTSH KLYNE PXV PENBE HUMBO RUSLR LIT FEWWW PROWD LETHR ARMYY SEEVR BRDJE COVIE LEMYN PITHY STONZ ROCKZ JEKIL DAYZZ RW35C
TRACK DATA
50,000 ft 1,000 kts
AIRCRAFT INFO AND CUMULATIVE STATS
Aircraft Type: 
B772
Registration: 
SELCAL: 
LPQS
MSN/LN: 
29579 / 190
Operator: 
Total Flights: 
14
Total Block Time: 
66 hrs
Total Flight Time: 
61.4 hrs
Total Fuel Used: 
904,109 lb
DATALINK LOG | Newest first | Current as of: 2022-09-30 02:50:17
LABEL SEQUENCE CONTENT Dn/Up
QD174101:14 34.2▼ Dn
QC103401:07▼ Dn
UM2123716KDFW ATIS - DFW ARR INFO T 2353Z. 16015G24KT 10SM SCT250 19/05 A2999 (TWO NINER NINER NINER). SIMUL VISUAL APCH TO RWYS, 13R, 18L, 17C, 17L. NOTAMS... RWY 18R CLSD. BIRD ACTIVITY VCNTY ARPT. ...ADVS YOU HAVE INFO T.▲ Up
DM793706 ATIS KDFW A▼ Dn
2U3222KDFW 212353Z 15015G24KT 10SM SCT250 19/05 A2999 RMK AO2 SLP153 T01890050 10211 20172 56018 $▲ Up
5Z360622 MAR 21 00:33:13z / FLT DECK GOOD / ACF POS GOOD / GRND SERVICES GOOD / MAINT GOOD▼ Dn
GA3615GATE A6▲ Up
GR3605KDFW 01:12 MAAS 00 YP/UM 01/02 WCHR/S/C 03/04/05 HI-VAL NO DIPL/VIP YES▼ Dn
2S3605KDFW▼ Dn
QB594715:56▼ Dn
5U4350KDFW 211945Z 16014G24KT 10SM FEW250 11/06 A3018▲ Up
5S4536KDFW▼ Dn
QA453515:42 173.1▼ Dn
2U3213EGLL 211520Z AUTO 02009KT 320V080 9999 BKN039 11/02 Q1028 NOSIG▲ Up
2S3527EGLL▼ Dn
A33526CLEARED TO KDFW VIA CPT4K CPT UL9 KENET N14 BAKUR DOGAL NATA LOMSI N625A ANCER POLTY Q804 DERLO WWSHR Q29 KLYNE PXV J131 LIT FEWWW BRDJE3. SQUAWK 1525.▲ Up
B33525EGLL KDFW AAL79 N771AN S ▼ Dn
Q03323[LINK ACK]▲ Up
Q03323[LINK TEST]▼ Dn
A31335CLEARED TO KDFW VIA CPT4K CPT UL9 KENET N14 BAKUR DOGAL NATA LOMSI N625A ANCER POLTY Q804 DERLO WWSHR Q29 KLYNE PXV J131 LIT FEWWW BRDJE3. SQUAWK 2456.▲ Up
B31335EGLL KDFW AAL79 N771AN S ▼ Dn
5U5743KDFW 211855Z 17015KT 10SM FEW250 09/04 A3020▲ Up
2U5739EGLL 211420Z AUTO 01008KT 320V050 9999 BKN039 11/02 Q1028 NOSIG▲ Up
5S0022KDFW▼ Dn
2S0022EGLL▼ Dn
Q05820[LINK ACK]▲ Up
Q05820[LINK TEST]▼ Dn


AIRCRAFT HISTORY
FLIGHT DATE FLIGHT NO. ORIGIN DESTINATION CLEARED ROUTE BLOCK TIME FLIGHT TIME FUEL USED PILOT
2021-05-21AAL519KDFW KTPA KDFW TREXX JOLEN PAXTN HANUH LYING FORCK ELD MEI CABLO HEVVN LEGGT TABIR DIPAY DARBS FOOXX DADPE BAYZZ WOBKI LAGOO RW01L2.5 hrs2.2 hrs31,837 lbChemtrails
2021-03-21AAL79EGLL KDFW EGLL D132B D254K WODNB D101H CPT KENET UGNUS OKTAD DOBEM TOPRO MEDOG FOXLA ABAPO PEMOB LANPI BAKUR DOGAL 5520N 5630N 5640N 5550N LOMSI ANCER POLTY KENLU PEPLA DERLO WWSHR DUTSH KLYNE PXV PENBE HUMBO RUSLR LIT FEWWW PROWD LETHR ARMYY SEEVR BRDJE COVIE LEMYN PITHY STONZ ROCKZ JEKIL DAYZZ RW35C9.5 hrs9.2 hrs138,941 lbGeorge
2021-03-20AAL9716KPHX EGLL KPHX SPRKY GOALY POCCK MRBIL YOTES JARPA RSK PUB OBH KP78G KP87K SSM MT ROBBE EXPOS JANJO 5650N 5840N 5930N 5920N AGORI OSBOX MIMKU KELLY CASEL PENIL WAL EKLAD MOGTA NANTI NUGRA TOBID SOPIT WCONB BNN CI27L RW27L10.2 hrs9.8 hrs150,499 lbGeorge
2021-03-13AAL421PHNL KPHX PHNL MKK BLUSH SESXI ALICA EBBER ELOYI ERROT ETNIC ETECO EDSEL EDTOO ELKEY LAX PDZ YCDIL WBERG BLH SCOLE SPINK SNRRA SWOON HYDRR GEELA AGGLA CHAVO LEMOE JAGAL RW265.5 hrs5.1 hrs74,389 lbGeorge
2021-03-13AAL692KPHX PHNL KPHX FUTEP AZCRD USEYE MASVE OAKLI KEENS IZZZO CULTS HRRBR CURIV DECAS PSP LAX DINTY ADUMM CUNDU BILLO BEKME BOARD BITTA BOWSZ HISPO BAMBO IHNET INOYI DZURA OOKAH COZES RW08L6.3 hrs6 hrs86,048 lbGeorge
2021-03-10AAL453KORD KPHX KORD OLINN OREOS OBENE OGALE KP66E KAWWA KD57Y PUB KD45U GUP KIRKM SLIDR TINIZ PAYSO EAGUL HOMRR VNNOM ESDEE BASSL DERVL JAGAL RW263.4 hrs3.2 hrs46,004 lbGeorge
2021-03-07AAL575KPHX KORD KPHX SPRKY FORPE LALUZ SJN ABQ FTI KENTO DRAWL GCK SLN AGENT KIDER IRK LOAMY KEOKK DRAMS RYELY BFORD BYLAW BENKY NEWRK AHSTN PETAH JORJO MONKZ TONIE RRUDA RW10C3.2 hrs2.8 hrs40,748 lbGeorge
2021-03-07AAL548KORD KPHX KORD PEKUE PIPPN ELYNA BACNN STJ SLN GCK CIM ZUN DOJOE SLIDR TINIZ PAYSO EAGUL HOMRR BOHTX GEENO QUENY HINEY OBASE JAMIL RW083.4 hrs3.1 hrs42,981 lbGeorge
2021-02-23AAL2343KLAX KORD KLAX HIIPR KLIPR KEGGS COOPP ORCKA NNAVY BLAZN LAS BAWER LARVE EKR KD66U BFF ONL FOD MYRRS SAAYY BENNR JBAGS BHAWK STNLE CUUPP CHMPN CLSBY FYTTE MOTRR COGSS MADII SOOLU JORJO MONKZ TONIE HAZIL RW28C3.8 hrs3.3 hrs47,295 lbGeorge
2021-02-18AAL1163KORD KLAX KORD MYKIE MONNY JORDY OBH HCT FQF HBU LRAIN TBC JASSE AREAF ESGEE DNERO SLLRS FLOJO SALYY GLESN ANJLL CAANN BOYEL CRCUS RW25L3.8 hrs3.6 hrs52,895 lbDan Downs
2021-02-14AAL1159KMIA KORD KMIA SENOY CIMBA FORKK VVMAX HEDLY STYMY ZERBO DUCEN OVENP FEMON VIYAP OLBEC ISUZO GURGE FISHO QUIWE BENBY DOOGE HAPKI TONIO OCASE HEVAN BONNT FRIDG WATSN HAUPO MKITA PRISE HULLS STYLE DWEEB CENAK HAZIL RW28C2.7 hrs2.3 hrs35,738 lbGeorge
2021-02-14AAL1635KORD KMIA KORD CMSKY CARYN CYBIL PXV BNA LGC GOONS BULZI SNAPY NICKI BITNY ENDEW JUULI BAARY CYY DEEDS SSCOT RUBOE WALIP LECIT COPRA RW08R3 hrs2.6 hrs38,525 lbGeorge
2021-02-13AAL615KPHX KORD KPHX WIVLA HIRVU ZIDOG OXYGN ZILUB FORPE LALUZ SJN ABQ FTI KENTO DRAWL GCK SLN AGENT KIDER IRK LOAMY KEOKK BDF BENKY NEWRK HAZIL RW28C3 hrs2.7 hrs37,956 lbGeorge
2021-02-13AAL693PHNL KPHX PHNL MKK BLUSH SESXI ALICA EBBER ELOYI ERROT ETNIC ETECO EDSEL EDTOO ELKEY SXC BLH SCOLE SPINK SNRRA SWOON HYDRR GEELA PUNNT TEICH TESLE FALGO CAGOR JAMIL RW085.8 hrs5.5 hrs80,251 lbGeorge